createdAt,value
2019-01-30T00:01:56.224Z,4.13
2019-01-30T00:04:25.310Z,4.70
2019-01-30T00:06:54.374Z,4.60
2019-01-30T00:09:23.448Z,5.03
2019-01-30T00:11:52.626Z,4.60
2019-01-30T00:14:22.042Z,4.90
2019-01-30T00:16:51.324Z,5.00
2019-01-30T00:19:20.468Z,4.37
2019-01-30T00:21:49.558Z,4.67
2019-01-30T00:24:25.852Z,4.30
2019-01-30T00:26:55.253Z,4.72
2019-01-30T00:29:24.420Z,4.73
2019-01-30T00:31:53.469Z,4.37
2019-01-30T00:34:22.523Z,4.60
2019-01-30T00:36:51.610Z,4.37
2019-01-30T00:39:20.709Z,4.77
2019-01-30T00:41:50.738Z,4.93
2019-01-30T00:44:19.816Z,4.30
2019-01-30T00:46:48.950Z,4.37
2019-01-30T00:49:18.191Z,4.33
2019-01-30T00:51:47.391Z,4.80
2019-01-30T00:54:16.525Z,4.47
2019-01-30T00:56:45.627Z,5.03
2019-01-30T00:59:14.617Z,4.63
2019-01-30T01:01:43.710Z,4.43
2019-01-30T01:04:12.871Z,4.20
2019-01-30T01:06:41.935Z,5.00
2019-01-30T01:09:11.091Z,4.87
2019-01-30T01:11:40.133Z,4.77
2019-01-30T01:14:09.237Z,4.67
2019-01-30T01:16:38.317Z,4.47
2019-01-30T01:19:07.444Z,5.00
2019-01-30T01:21:36.574Z,5.20
2019-01-30T01:24:05.635Z,5.00
2019-01-30T01:26:34.761Z,4.50
2019-01-30T01:29:03.841Z,5.17
2019-01-30T01:31:32.851Z,4.93
2019-01-30T01:34:01.925Z,5.10
2019-01-30T01:36:31.661Z,4.90
2019-01-30T01:39:00.665Z,5.07
2019-01-30T01:41:29.813Z,5.20
2019-01-30T01:43:58.934Z,5.47
2019-01-30T01:46:28.126Z,5.33
2019-01-30T01:48:57.174Z,5.13
2019-01-30T01:51:26.330Z,5.00
2019-01-30T01:53:55.420Z,4.93
2019-01-30T01:56:24.489Z,5.60
2019-01-30T01:58:53.567Z,5.30
2019-01-30T02:01:22.637Z,5.03
2019-01-30T02:03:51.714Z,5.10
2019-01-30T02:06:20.782Z,5.20
2019-01-30T02:08:49.854Z,5.70
2019-01-30T02:11:18.948Z,5.23
2019-01-30T02:13:48.935Z,5.10
2019-01-30T02:16:18.095Z,5.60
2019-01-30T02:18:47.191Z,4.90
2019-01-30T02:21:16.370Z,5.87
2019-01-30T02:23:45.936Z,5.47
2019-01-30T02:26:15.032Z,5.40
2019-01-30T02:28:44.102Z,5.40
2019-01-30T02:31:13.191Z,5.37
2019-01-30T02:33:42.246Z,5.60
2019-01-30T02:36:11.646Z,5.43
2019-01-30T02:38:40.759Z,5.70
2019-01-30T02:41:09.921Z,5.63
2019-01-30T02:43:39.084Z,5.30
2019-01-30T02:46:08.149Z,5.20
2019-01-30T02:48:37.261Z,5.17
2019-01-30T02:51:06.329Z,5.73
2019-01-30T02:53:36.066Z,5.57
2019-01-30T02:56:05.231Z,5.33
2019-01-30T02:58:34.334Z,5.03
2019-01-30T03:01:03.686Z,5.63
2019-01-30T03:03:32.752Z,5.40
2019-01-30T03:06:01.887Z,5.30
2019-01-30T03:08:30.989Z,5.37
2019-01-30T03:11:00.182Z,5.00
2019-01-30T03:13:29.242Z,4.90
2019-01-30T03:15:58.352Z,5.15
2019-01-30T03:18:27.445Z,4.97
2019-01-30T03:20:56.596Z,5.13
2019-01-30T03:23:25.669Z,5.40
2019-01-30T03:25:54.765Z,5.03
2019-01-30T03:28:23.842Z,5.20
2019-01-30T03:30:52.924Z,4.95
2019-01-30T03:33:22.040Z,4.87
2019-01-30T03:35:51.108Z,5.37
2019-01-30T03:38:20.265Z,5.57
2019-01-30T03:40:49.359Z,5.90
2019-01-30T03:43:18.528Z,5.43
2019-01-30T03:45:47.638Z,5.13
2019-01-30T03:48:16.925Z,5.17
2019-01-30T03:50:46.031Z,5.28
2019-01-30T03:53:15.156Z,5.53
2019-01-30T03:55:44.537Z,5.37
2019-01-30T03:58:13.674Z,6.40
2019-01-30T04:00:42.902Z,5.67
2019-01-30T04:03:11.984Z,5.40
2019-01-30T04:05:41.091Z,5.63
2019-01-30T04:08:10.195Z,5.30
2019-01-30T04:10:39.284Z,5.07
2019-01-30T04:13:08.383Z,5.47
2019-01-30T04:15:37.564Z,5.93
2019-01-30T04:18:06.618Z,5.47
2019-01-30T04:20:35.720Z,5.50
2019-01-30T04:23:04.872Z,5.40
2019-01-30T04:25:34.036Z,5.17
2019-01-30T04:28:03.180Z,5.43
2019-01-30T04:30:32.254Z,5.97
2019-01-30T04:33:01.291Z,5.27
2019-01-30T04:35:30.429Z,5.87
2019-01-30T04:37:59.499Z,5.80
2019-01-30T04:40:28.890Z,5.43
2019-01-30T04:42:58.078Z,6.03
2019-01-30T04:45:27.220Z,5.80
2019-01-30T04:47:56.309Z,4.90
2019-01-30T04:50:25.459Z,5.60
2019-01-30T04:52:54.636Z,6.10
2019-01-30T04:55:23.712Z,5.53
2019-01-30T04:57:53.130Z,5.80
2019-01-30T05:00:24.278Z,6.27
2019-01-30T05:02:53.505Z,6.07
2019-01-30T05:05:22.954Z,6.10
2019-01-30T05:07:52.384Z,5.87
2019-01-30T05:10:21.828Z,6.50
2019-01-30T05:12:51.118Z,6.00
2019-01-30T05:15:20.790Z,6.10
2019-01-30T05:17:50.154Z,6.60
2019-01-30T05:20:19.699Z,6.33
2019-01-30T05:22:48.781Z,6.47
2019-01-30T05:25:17.879Z,6.47
2019-01-30T05:27:46.990Z,6.20
2019-01-30T05:30:25.116Z,6.47
2019-01-30T05:32:54.270Z,6.33
2019-01-30T05:35:23.351Z,6.77
2019-01-30T05:37:52.417Z,6.83
2019-01-30T05:40:21.624Z,6.00
2019-01-30T05:42:50.741Z,7.00
2019-01-30T05:45:20.344Z,6.20
2019-01-30T05:47:49.531Z,6.60
2019-01-30T05:50:18.606Z,6.90
2019-01-30T05:52:48.642Z,6.70
2019-01-30T05:55:17.777Z,6.47
2019-01-30T05:57:46.937Z,6.03
2019-01-30T06:00:25.857Z,6.97
2019-01-30T06:02:55.000Z,6.60
2019-01-30T06:05:24.094Z,6.67
2019-01-30T06:07:53.271Z,6.60
2019-01-30T06:10:22.855Z,6.80
2019-01-30T06:12:51.975Z,6.93
2019-01-30T06:15:21.337Z,7.03
2019-01-30T06:17:50.524Z,6.70
2019-01-30T06:20:21.969Z,7.50
2019-01-30T06:22:51.125Z,8.10
2019-01-30T06:25:20.205Z,6.97
2019-01-30T06:27:49.444Z,6.90
2019-01-30T06:30:19.249Z,6.87
2019-01-30T06:32:48.314Z,7.90
2019-01-30T06:35:17.415Z,7.43
2019-01-30T06:37:46.490Z,7.40
2019-01-30T06:40:20.966Z,7.67
2019-01-30T06:42:50.139Z,7.30
2019-01-30T06:45:19.256Z,7.20
2019-01-30T06:47:48.387Z,7.50
2019-01-30T06:50:17.629Z,7.93
2019-01-30T06:52:49.410Z,7.70
2019-01-30T06:55:18.998Z,7.47
2019-01-30T06:57:48.146Z,7.73
2019-01-30T07:00:19.452Z,7.70
2019-01-30T07:02:49.333Z,8.03
2019-01-30T07:05:18.566Z,8.47
2019-01-30T07:07:47.750Z,8.47
2019-01-30T07:10:19.209Z,7.97
2019-01-30T07:12:48.366Z,7.40
2019-01-30T07:15:17.731Z,8.35
2019-01-30T07:17:46.849Z,7.87
2019-01-30T07:20:16.354Z,8.00
2019-01-30T07:22:45.469Z,7.93
2019-01-30T07:25:15.966Z,7.80
2019-01-30T07:27:45.156Z,8.50
2019-01-30T07:30:19.642Z,8.97
2019-01-30T07:32:48.735Z,8.70
2019-01-30T07:35:17.813Z,8.77
2019-01-30T07:37:46.927Z,8.57
2019-01-30T07:40:16.255Z,8.60
2019-01-30T07:42:45.330Z,8.27
2019-01-30T07:45:15.824Z,8.38
2019-01-30T07:47:44.920Z,8.30
2019-01-30T07:50:14.180Z,8.70
2019-01-30T07:52:43.293Z,8.53
2019-01-30T07:55:14.406Z,9.30
2019-01-30T07:57:43.679Z,9.50
2019-01-30T08:00:23.806Z,9.30
2019-01-30T08:02:53.798Z,9.23
2019-01-30T08:05:23.527Z,9.63
2019-01-30T08:07:53.033Z,9.00
2019-01-30T08:10:22.229Z,9.83
2019-01-30T08:12:51.451Z,8.63
2019-01-30T08:15:20.751Z,9.40
2019-01-30T08:17:49.904Z,9.50
2019-01-30T08:20:20.519Z,9.87
2019-01-30T08:22:49.792Z,9.37
2019-01-30T08:25:20.643Z,9.17
2019-01-30T08:27:50.293Z,9.43
2019-01-30T08:30:25.001Z,9.43
2019-01-30T08:33:04.122Z,9.47
2019-01-30T08:35:27.054Z,10.07
2019-01-30T08:37:56.145Z,9.80
2019-01-30T08:40:26.143Z,9.40
2019-01-30T08:42:55.274Z,10.00
2019-01-30T08:45:26.419Z,10.47
2019-01-30T08:47:55.515Z,9.73
2019-01-30T08:50:43.711Z,10.10
2019-01-30T08:53:12.786Z,9.73
2019-01-30T08:55:41.850Z,9.60
2019-01-30T08:58:11.001Z,9.43
2019-01-30T09:00:40.067Z,10.03
2019-01-30T09:03:14.977Z,10.27
2019-01-30T09:05:41.026Z,10.23
2019-01-30T09:08:10.108Z,9.77
2019-01-30T09:10:39.190Z,11.07
2019-01-30T09:13:08.260Z,10.03
2019-01-30T09:15:37.334Z,11.20
2019-01-30T09:18:06.806Z,10.43
2019-01-30T09:20:35.876Z,10.23
2019-01-30T09:23:04.963Z,11.00
2019-01-30T09:25:34.093Z,11.47
2019-01-30T09:28:03.167Z,10.53
2019-01-30T09:30:34.760Z,11.07
2019-01-30T09:33:04.095Z,10.40
2019-01-30T09:35:33.214Z,11.00
2019-01-30T09:38:02.285Z,11.37
2019-01-30T09:40:31.486Z,10.83
2019-01-30T09:43:00.596Z,11.13
2019-01-30T09:45:29.721Z,11.07
2019-01-30T09:47:58.884Z,11.07
2019-01-30T09:50:28.045Z,11.07
2019-01-30T09:52:57.242Z,12.20
2019-01-30T09:55:26.519Z,10.87
2019-01-30T09:57:55.576Z,11.57
2019-01-30T10:00:30.758Z,11.57
2019-01-30T10:02:59.843Z,11.77
2019-01-30T10:05:29.269Z,11.43
2019-01-30T10:07:58.549Z,11.67
2019-01-30T10:10:35.595Z,11.90
2019-01-30T10:13:05.075Z,11.93
2019-01-30T10:15:37.267Z,12.40
2019-01-30T10:18:06.966Z,11.87
2019-01-30T10:20:36.686Z,11.37
2019-01-30T10:23:06.061Z,12.20
2019-01-30T10:25:35.313Z,13.10
2019-01-30T10:28:15.689Z,12.80
2019-01-30T10:30:37.451Z,12.73
2019-01-30T10:33:06.819Z,12.10
2019-01-30T10:35:36.390Z,11.97
2019-01-30T10:38:06.115Z,12.33
2019-01-30T10:40:35.361Z,13.07
2019-01-30T10:43:05.225Z,11.83
2019-01-30T10:45:34.317Z,12.95
2019-01-30T10:48:03.575Z,12.33
2019-01-30T10:50:32.981Z,12.53
2019-01-30T10:53:02.101Z,13.50
2019-01-30T10:55:32.239Z,13.37
2019-01-30T10:58:03.201Z,14.03
2019-01-30T11:00:38.251Z,14.00
2019-01-30T11:03:07.313Z,14.40
2019-01-30T11:05:36.657Z,13.90
2019-01-30T11:08:06.341Z,16.03
2019-01-30T11:10:35.407Z,15.57
2019-01-30T11:13:04.876Z,16.30
2019-01-30T11:15:33.974Z,16.60
2019-01-30T11:18:03.308Z,15.93
2019-01-30T11:20:32.378Z,17.17
2019-01-30T11:23:01.560Z,18.33
2019-01-30T11:25:33.407Z,17.43
2019-01-30T11:28:02.848Z,17.93
2019-01-30T11:30:32.235Z,18.40
2019-01-30T11:33:02.280Z,18.67
2019-01-30T11:35:31.553Z,17.90
2019-01-30T11:38:00.619Z,17.33
2019-01-30T11:40:29.666Z,18.47
2019-01-30T11:42:58.809Z,16.40
2019-01-30T11:45:33.334Z,17.70
2019-01-30T11:48:02.432Z,16.63
2019-01-30T11:50:31.500Z,17.73
2019-01-30T11:53:00.576Z,17.50
2019-01-30T11:55:29.640Z,17.37
2019-01-30T11:57:58.700Z,18.30
2019-01-30T12:00:50.492Z,17.70
2019-01-30T12:03:19.544Z,17.30
2019-01-30T12:05:48.682Z,17.43
2019-01-30T12:08:18.079Z,18.97
2019-01-30T12:10:47.163Z,18.00
2019-01-30T12:13:16.240Z,18.43
2019-01-30T12:15:45.315Z,18.60
2019-01-30T12:18:14.538Z,18.87
2019-01-30T12:20:43.598Z,19.23
2019-01-30T12:23:12.674Z,17.87
2019-01-30T12:25:41.840Z,16.62
2019-01-30T12:28:10.855Z,15.50
2019-01-30T12:30:40.029Z,15.87
2019-01-30T12:33:09.300Z,14.73
2019-01-30T12:35:38.387Z,15.93
2019-01-30T12:38:07.445Z,11.70
2019-01-30T12:40:36.507Z,11.13
2019-01-30T12:43:06.606Z,10.17
2019-01-30T12:45:36.063Z,10.23
2019-01-30T12:48:06.337Z,9.83
2019-01-30T12:50:35.486Z,9.60
2019-01-30T12:53:04.551Z,7.63
2019-01-30T12:55:33.619Z,7.57
2019-01-30T12:58:02.694Z,7.10
2019-01-30T13:00:34.359Z,6.50
2019-01-30T13:03:03.431Z,6.73
2019-01-30T13:05:32.587Z,6.57
2019-01-30T13:08:01.665Z,6.27
2019-01-30T13:10:30.705Z,6.77
2019-01-30T13:12:59.761Z,6.37
2019-01-30T13:15:28.909Z,6.80
2019-01-30T13:17:58.212Z,7.30
2019-01-30T13:20:27.324Z,6.60
2019-01-30T13:22:56.387Z,6.93
2019-01-30T13:25:30.543Z,7.00
2019-01-30T13:27:59.899Z,7.50
2019-01-30T13:30:31.434Z,7.70
2019-01-30T13:33:00.640Z,8.40
2019-01-30T13:35:29.838Z,8.53
2019-01-30T13:37:58.908Z,10.00
2019-01-30T13:40:30.602Z,10.20
2019-01-30T13:43:01.448Z,11.07
2019-01-30T13:45:31.353Z,11.30
2019-01-30T13:48:00.699Z,11.80
2019-01-30T13:50:29.870Z,11.53
2019-01-30T13:52:59.042Z,11.50
2019-01-30T13:55:28.098Z,11.70
2019-01-30T13:57:57.192Z,13.30
2019-01-30T14:00:29.447Z,10.87
2019-01-30T14:02:58.529Z,9.67
2019-01-30T14:05:27.871Z,10.37
2019-01-30T14:07:57.405Z,9.37
2019-01-30T14:10:27.328Z,8.43
2019-01-30T14:12:56.542Z,9.90
2019-01-30T14:15:26.348Z,9.17
2019-01-30T14:17:55.429Z,9.70
2019-01-30T14:20:24.584Z,9.93
2019-01-30T14:22:53.836Z,11.20
2019-01-30T14:25:22.956Z,10.20
2019-01-30T14:27:52.053Z,9.33
2019-01-30T14:30:26.243Z,10.33
2019-01-30T14:32:55.293Z,10.20
2019-01-30T14:35:25.919Z,9.40
2019-01-30T14:37:55.428Z,10.73
2019-01-30T14:40:26.578Z,10.60
2019-01-30T14:42:55.659Z,10.07
2019-01-30T14:45:24.824Z,11.33
2019-01-30T14:47:54.089Z,10.17
2019-01-30T14:50:24.403Z,11.50
2019-01-30T14:52:53.579Z,11.30
2019-01-30T14:55:23.142Z,10.80
2019-01-30T14:57:53.352Z,11.07
2019-01-30T15:00:27.889Z,11.10
2019-01-30T15:02:57.049Z,10.40
2019-01-30T15:05:26.333Z,9.77
2019-01-30T15:07:55.464Z,10.10
2019-01-30T15:10:24.651Z,10.63
2019-01-30T15:12:53.894Z,11.10
2019-01-30T15:15:25.161Z,11.17
2019-01-30T15:17:54.276Z,12.17
2019-01-30T15:20:28.045Z,11.63
2019-01-30T15:22:57.920Z,11.57
2019-01-30T15:25:27.100Z,11.47
2019-01-30T15:27:56.451Z,10.80
2019-01-30T15:30:28.141Z,10.73
2019-01-30T15:32:57.221Z,10.43
2019-01-30T15:35:33.248Z,10.93
2019-01-30T15:37:57.255Z,9.60
2019-01-30T15:40:26.877Z,10.00
2019-01-30T15:42:55.871Z,10.50
2019-01-30T15:45:25.366Z,9.90
2019-01-30T15:47:54.443Z,9.67
2019-01-30T15:50:25.543Z,9.57
2019-01-30T15:52:55.883Z,9.27
2019-01-30T15:55:25.202Z,9.50
2019-01-30T15:57:56.780Z,9.20
2019-01-30T16:00:29.869Z,9.78
2019-01-30T16:02:59.005Z,9.23
2019-01-30T16:05:28.058Z,9.40
2019-01-30T16:07:57.134Z,10.07
2019-01-30T16:10:26.549Z,9.80
2019-01-30T16:12:55.608Z,9.67
2019-01-30T16:15:28.502Z,9.83
2019-01-30T16:17:57.569Z,9.87
2019-01-30T16:20:26.661Z,9.97
2019-01-30T16:22:55.758Z,9.90
2019-01-30T16:25:24.852Z,9.00
2019-01-30T16:27:53.920Z,9.23
2019-01-30T16:30:23.440Z,10.27
2019-01-30T16:32:52.513Z,9.97
2019-01-30T16:35:24.454Z,8.97
2019-01-30T16:37:53.899Z,9.83
2019-01-30T16:40:23.360Z,9.40
2019-01-30T16:42:54.304Z,9.67
2019-01-30T16:45:24.583Z,8.60
2019-01-30T16:47:53.818Z,8.60
2019-01-30T16:50:22.913Z,8.80
2019-01-30T16:52:52.798Z,8.47
2019-01-30T16:55:22.172Z,7.07
2019-01-30T16:57:51.763Z,7.00
2019-01-30T17:00:29.781Z,7.27
2019-01-30T17:02:58.984Z,7.07
2019-01-30T17:05:28.761Z,6.77
2019-01-30T17:07:57.830Z,6.30
2019-01-30T17:10:26.911Z,6.40
2019-01-30T17:12:55.982Z,6.17
2019-01-30T17:15:27.137Z,6.00
2019-01-30T17:17:56.198Z,5.80
2019-01-30T17:20:27.538Z,5.67
2019-01-30T17:22:56.603Z,5.30
2019-01-30T17:25:25.791Z,5.47
2019-01-30T17:27:54.893Z,5.50
2019-01-30T17:30:47.524Z,5.07
2019-01-30T17:33:16.617Z,4.77
2019-01-30T17:35:45.661Z,4.63
2019-01-30T17:38:14.733Z,4.67
2019-01-30T17:40:44.681Z,4.00
2019-01-30T17:43:13.846Z,3.47
2019-01-30T17:45:42.931Z,2.97
2019-01-30T17:48:13.031Z,3.10
2019-01-30T17:50:43.139Z,2.73
2019-01-30T17:53:12.184Z,2.33
2019-01-30T17:55:41.437Z,2.30
2019-01-30T17:58:10.695Z,2.07
2019-01-30T18:00:46.756Z,1.70
2019-01-30T18:03:16.027Z,1.73
2019-01-30T18:05:45.156Z,1.90
2019-01-30T18:08:14.216Z,1.60
2019-01-30T18:10:43.273Z,2.00
2019-01-30T18:13:14.365Z,1.97
2019-01-30T18:15:43.197Z,1.90
2019-01-30T18:18:12.250Z,2.00
2019-01-30T18:20:41.390Z,1.83
2019-01-30T18:23:10.463Z,2.00
2019-01-30T18:25:39.442Z,1.67
2019-01-30T18:28:08.502Z,1.80
2019-01-30T18:30:37.618Z,1.60
2019-01-30T18:33:06.793Z,2.00
2019-01-30T18:35:35.893Z,2.20
2019-01-30T18:38:05.710Z,2.20
2019-01-30T18:40:34.784Z,1.90
2019-01-30T18:43:04.223Z,1.80
2019-01-30T18:45:33.289Z,1.90
2019-01-30T18:48:02.332Z,1.90
2019-01-30T18:50:31.507Z,2.00
2019-01-30T18:53:00.547Z,1.93
2019-01-30T18:55:31.089Z,1.90
2019-01-30T18:58:00.365Z,1.60
2019-01-30T19:00:32.145Z,1.80
2019-01-30T19:03:02.347Z,1.67
2019-01-30T19:05:32.214Z,2.07
2019-01-30T19:08:01.402Z,1.70
2019-01-30T19:10:30.474Z,1.97
2019-01-30T19:12:59.526Z,2.33
2019-01-30T19:15:28.891Z,2.30
2019-01-30T19:17:57.983Z,1.90
2019-01-30T19:20:32.422Z,1.80
2019-01-30T19:23:01.577Z,1.53
2019-01-30T19:25:30.630Z,1.70
2019-01-30T19:27:59.710Z,1.70
2019-01-30T19:30:30.683Z,1.80
2019-01-30T19:32:59.719Z,1.90
2019-01-30T19:35:28.783Z,1.80
2019-01-30T19:37:58.172Z,1.70
2019-01-30T19:40:27.329Z,1.80
2019-01-30T19:42:56.461Z,2.00
2019-01-30T19:45:26.588Z,2.23
2019-01-30T19:47:55.675Z,2.00
2019-01-30T19:50:26.654Z,1.00
2019-01-30T19:52:56.815Z,1.20
2019-01-30T19:55:25.961Z,0.90
2019-01-30T19:57:55.605Z,1.10
2019-01-30T20:00:31.063Z,1.10
2019-01-30T20:03:01.058Z,0.80
2019-01-30T20:05:30.126Z,1.17
2019-01-30T20:07:59.899Z,1.10
2019-01-30T20:10:31.328Z,0.93
2019-01-30T20:13:00.485Z,1.77
2019-01-30T20:15:30.248Z,1.90
2019-01-30T20:17:59.639Z,1.80
2019-01-30T20:20:29.177Z,2.00
2019-01-30T20:22:59.443Z,2.63
2019-01-30T20:25:31.417Z,2.30
2019-01-30T20:28:00.554Z,1.73
2019-01-30T20:30:29.672Z,2.10
2019-01-30T20:32:59.760Z,1.97
2019-01-30T20:35:29.160Z,1.80
2019-01-30T20:37:58.219Z,2.00
2019-01-30T20:40:28.152Z,2.70
2019-01-30T20:42:57.844Z,2.40
2019-01-30T20:45:33.865Z,2.50
2019-01-30T20:47:57.974Z,3.20
2019-01-30T20:50:28.638Z,2.77
2019-01-30T20:52:57.939Z,2.73
2019-01-30T20:55:27.106Z,2.23
2019-01-30T20:57:56.178Z,2.10
2019-01-30T21:00:36.810Z,2.00
2019-01-30T21:03:06.367Z,2.40
2019-01-30T21:05:35.818Z,1.93
2019-01-30T21:08:05.947Z,1.90
2019-01-30T21:10:37.379Z,2.10
2019-01-30T21:13:07.003Z,1.87
2019-01-30T21:15:36.220Z,1.90
2019-01-30T21:18:05.506Z,1.57
2019-01-30T21:20:34.576Z,1.93
2019-01-30T21:23:04.111Z,1.83
2019-01-30T21:25:33.170Z,1.53
2019-01-30T21:28:02.262Z,2.03
2019-01-30T21:30:33.534Z,1.90
2019-01-30T21:33:02.711Z,2.13
2019-01-30T21:35:31.969Z,2.00
2019-01-30T21:38:03.754Z,1.90
2019-01-30T21:40:32.928Z,2.20
2019-01-30T21:43:02.038Z,2.00
2019-01-30T21:45:31.254Z,2.07
2019-01-30T21:48:01.045Z,2.00
2019-01-30T21:50:30.137Z,2.10
2019-01-30T21:52:59.199Z,2.20
2019-01-30T21:55:28.810Z,2.13
2019-01-30T21:57:57.891Z,2.40
2019-01-30T22:00:30.740Z,2.00
2019-01-30T22:02:59.983Z,2.67
2019-01-30T22:05:29.353Z,3.77
2019-01-30T22:08:00.959Z,3.13
2019-01-30T22:10:30.120Z,3.00
2019-01-30T22:12:59.270Z,2.90
2019-01-30T22:15:28.373Z,2.90
2019-01-30T22:17:59.361Z,2.43
2019-01-30T22:20:28.453Z,2.70
2019-01-30T22:22:57.503Z,2.80
2019-01-30T22:25:27.403Z,2.40
2019-01-30T22:27:56.553Z,2.50
2019-01-30T22:30:30.539Z,2.67
2019-01-30T22:32:59.672Z,2.53
2019-01-30T22:35:29.178Z,2.90
2019-01-30T22:37:58.338Z,2.77
2019-01-30T22:40:27.552Z,2.70
2019-01-30T22:42:56.762Z,2.27
2019-01-30T22:45:25.911Z,2.43
2019-01-30T22:47:55.121Z,2.60
2019-01-30T22:50:24.196Z,2.47
2019-01-30T22:52:53.280Z,2.90
2019-01-30T22:55:23.220Z,2.80
2019-01-30T22:57:52.273Z,2.80
2019-01-30T23:01:04.638Z,2.63
2019-01-30T23:03:58.864Z,2.87
2019-01-30T23:06:42.084Z,3.00
2019-01-30T23:09:55.217Z,2.90
2019-01-30T23:12:35.118Z,2.70
2019-01-30T23:15:12.526Z,3.30
2019-01-30T23:18:31.262Z,3.20
2019-01-30T23:21:06.308Z,3.23
2019-01-30T23:24:29.027Z,3.27
2019-01-30T23:27:18.199Z,3.53
2019-01-30T23:30:23.030Z,3.30
2019-01-30T23:33:16.650Z,3.10
2019-01-30T23:35:54.740Z,3.27
2019-01-30T23:39:10.949Z,3.33
2019-01-30T23:41:56.232Z,3.03
2019-01-30T23:45:24.782Z,3.33
2019-01-30T23:48:32.191Z,3.00
2019-01-30T23:51:31.199Z,2.97
2019-01-30T23:54:33.065Z,2.80
2019-01-30T23:57:38.293Z,2.97
